Southey, Canada
Current Conditions -  °F | °C
As of 6:00 PM on Monday 24 Nov 2014 (Local Time) from CYQR Reporting Station
Overcast Overcast  
Wind Chill: 11°   Ceiling: 1000
Heat Index: 25°   Visibility: 15mi
Dew Point: 21°   Wind: 17mph
Humidity: 86%   Direction: 310°NW
Pressure: 29.95"   Gusts: 23mph
Location:  50.93°N, 104.5°W
Report Text: CYQR 250000Z 31015G20KT 15SM OVC010 M04/M06 A2995 RMK SC8 SLP182
Loading
Personal Weather Stations






























Interactive Weather Map New forecast layout! Learn more

10-Day Weather Forecast

Advertisements
Track Severe Weather on mobile